Time;durP1;ratioP1;P1;durP2;ratioP2;P2;SDS_P1;SDS_P2;PMS_P1;PMS_P2;Temp;Humidity;BMP_temperature;BMP_pressure;BME280_temperature;BME280_humidity;BME280_pressure;Samples;Min_cycle;Max_cycle;Signal;HPM_P1;HPM_P2
2022/11/11 00:01:18;;;;;;;;;;;13.30;99.90;;;;;;5071201;28;19912;-72
2022/11/11 00:03:44;;;;;;;;;;;13.30;99.90;;;;;;5057420;28;19952;-72
2022/11/11 00:06:10;;;;;;;;;;;13.30;99.90;;;;;;5073235;28;19908;-73
2022/11/11 00:08:46;;;;;;;;;;;13.30;99.90;;;;;;5073224;28;19999;-72
2022/11/11 00:11:13;;;;;;;;;;;13.30;99.90;;;;;;5070903;28;19912;-72
2022/11/11 00:13:42;;;;;;;;;;;13.20;99.90;;;;;;5079012;28;19912;-72
2022/11/11 00:16:11;;;;;;;;;;;13.20;99.90;;;;;;5077349;28;19913;-72
2022/11/11 00:27:04;;;;;;;;;;;13.10;99.90;;;;;;5077236;28;19919;-72
2022/11/11 00:29:30;;;;;;;;;;;13.20;99.90;;;;;;5082785;28;19908;-72
2022/11/11 00:38:05;;;;;;;;;;;13.10;99.90;;;;;;5082956;28;19929;-72
2022/11/11 00:40:30;;;;;;;;;;;13.00;99.90;;;;;;5081441;28;19912;-72
2022/11/11 00:42:56;;;;;;;;;;;13.00;99.90;;;;;;5078182;28;19913;-73
2022/11/11 00:45:22;;;;;;;;;;;12.90;99.90;;;;;;5079318;28;19912;-72
2022/11/11 00:51:17;;;;;;;;;;;12.90;99.90;;;;;;5076493;28;19915;-73
2022/11/11 00:53:19;;;;;;;;;;;12.80;99.90;;;;;;5067643;28;19989;-73
2022/11/11 00:55:44;;;;;;;;;;;12.70;99.90;;;;;;5058314;28;19919;-72
2022/11/11 00:58:10;;;;;;;;;;;12.70;99.90;;;;;;5056724;28;19912;-72
2022/11/11 01:00:36;;;;;;;;;;;12.60;99.90;;;;;;5078479;28;19934;-72
2022/11/11 01:03:21;;;;;;;;;;;12.60;99.90;;;;;;5083267;28;19920;-73
2022/11/11 01:05:47;;;;;;;;;;;12.60;99.90;;;;;;5049681;28;20004;-75
2022/11/11 01:08:13;;;;;;;;;;;12.70;99.90;;;;;;5067542;28;19923;-72
2022/11/11 01:10:38;;;;;;;;;;;12.60;99.90;;;;;;5068509;28;19916;-72
2022/11/11 01:13:50;;;;;;;;;;;12.70;99.90;;;;;;5086302;28;19917;-72
2022/11/11 01:16:18;;;;;;;;;;;12.70;99.90;;;;;;5065234;28;19912;-72
2022/11/11 01:18:43;;;;;;;;;;;12.60;99.90;;;;;;5079838;28;19919;-72
2022/11/11 01:21:14;;;;;;;;;;;12.60;99.90;;;;;;5060287;28;19913;-72
2022/11/11 01:23:58;;;;;;;;;;;12.50;99.90;;;;;;5048660;28;19962;-71
2022/11/11 01:26:24;;;;;;;;;;;12.50;99.90;;;;;;5053680;28;19916;-71
2022/11/11 01:28:53;;;;;;;;;;;12.40;99.90;;;;;;5085472;28;19985;-71
2022/11/11 01:31:19;;;;;;;;;;;12.40;99.90;;;;;;5059603;28;19947;-72
2022/11/11 01:33:45;;;;;;;;;;;12.40;99.90;;;;;;5075741;28;19955;-71
2022/11/11 01:36:48;;;;;;;;;;;12.50;99.90;;;;;;5074531;28;19912;-71
2022/11/11 01:39:08;;;;;;;;;;;12.50;99.90;;;;;;5072038;28;20003;-72
2022/11/11 01:41:43;;;;;;;;;;;12.40;99.90;;;;;;5073083;28;19999;-72
2022/11/11 01:44:12;;;;;;;;;;;12.30;99.90;;;;;;5068530;28;19917;-73
2022/11/11 01:46:40;;;;;;;;;;;12.20;99.90;;;;;;5063116;28;19912;-71
2022/11/11 01:49:17;;;;;;;;;;;12.20;99.90;;;;;;5059522;28;19917;-72
2022/11/11 01:51:48;;;;;;;;;;;12.20;99.90;;;;;;5047920;28;19917;-71
2022/11/11 01:54:23;;;;;;;;;;;12.30;99.90;;;;;;5063767;28;19928;-72
2022/11/11 01:56:50;;;;;;;;;;;12.50;99.90;;;;;;5077488;28;19920;-72
2022/11/11 01:59:16;;;;;;;;;;;12.60;99.90;;;;;;5074853;28;20007;-73
2022/11/11 02:01:43;;;;;;;;;;;12.60;99.90;;;;;;5060449;28;19958;-71
2022/11/11 02:06:56;;;;;;;;;;;12.60;99.90;;;;;;5067100;28;19923;-72
2022/11/11 02:09:23;;;;;;;;;;;12.50;99.90;;;;;;5073326;28;19948;-72
2022/11/11 02:14:47;;;;;;;;;;;12.40;99.90;;;;;;5070733;28;20332;-71
2022/11/11 02:17:23;;;;;;;;;;;12.40;99.90;;;;;;5075434;28;19963;-72
2022/11/11 02:19:52;;;;;;;;;;;12.40;99.90;;;;;;5075112;28;19990;-72
2022/11/11 02:22:40;;;;;;;;;;;12.30;99.90;;;;;;5074492;28;20015;-71
2022/11/11 02:25:07;;;;;;;;;;;12.30;99.90;;;;;;5080434;28;19913;-72
2022/11/11 02:27:34;;;;;;;;;;;12.40;99.90;;;;;;5056514;28;19915;-71
2022/11/11 02:30:00;;;;;;;;;;;12.40;99.90;;;;;;5073109;28;19978;-72
2022/11/11 02:32:26;;;;;;;;;;;12.60;99.90;;;;;;5053322;28;20045;-72
2022/11/11 02:34:52;;;;;;;;;;;12.60;99.90;;;;;;5071313;28;19963;-72
2022/11/11 02:37:24;;;;;;;;;;;12.70;99.90;;;;;;5073424;28;19908;-73
2022/11/11 02:39:52;;;;;;;;;;;12.70;99.90;;;;;;5071635;28;19963;-72
2022/11/11 02:42:19;;;;;;;;;;;12.90;99.90;;;;;;5072141;28;19913;-71
2022/11/11 02:44:44;;;;;;;;;;;12.90;99.90;;;;;;5064860;28;20011;-72
2022/11/11 02:47:10;;;;;;;;;;;12.90;99.90;;;;;;5049708;28;20045;-72
2022/11/11 02:49:36;;;;;;;;;;;12.90;99.90;;;;;;5064179;28;19920;-71
2022/11/11 02:52:02;;;;;;;;;;;13.00;99.90;;;;;;5064610;28;19927;-72
2022/11/11 02:54:28;;;;;;;;;;;13.00;99.90;;;;;;5064612;28;20407;-71
2022/11/11 02:57:23;;;;;;;;;;;12.90;99.90;;;;;;5046560;28;20026;-71
2022/11/11 03:00:11;;;;;;;;;;;;;;;;;;;;;
2022/11/11 03:02:48;;;;;;;;;;;12.90;99.90;;;;;;5080167;28;20392;-72
2022/11/11 03:05:29;;;;;;;;;;;12.80;99.90;;;;;;5083454;28;19923;-72
2022/11/11 03:07:55;;;;;;;;;;;12.70;99.90;;;;;;5086701;28;19913;-72
2022/11/11 03:10:20;;;;;;;;;;;12.60;99.90;;;;;;5079973;28;19966;-72
2022/11/11 03:12:57;;;;;;;;;;;12.60;99.90;;;;;;5076620;28;19959;-72
2022/11/11 03:15:23;;;;;;;;;;;12.60;99.90;;;;;;5080886;28;20277;-71
2022/11/11 03:18:02;;;;;;;;;;;12.60;99.90;;;;;;5084847;28;20011;-72
2022/11/11 03:23:22;;;;;;;;;;;12.60;99.90;;;;;;5072995;28;19923;-72
2022/11/11 03:25:51;;;;;;;;;;;12.50;99.90;;;;;;5057448;28;20313;-72
2022/11/11 03:31:36;;;;;;;;;;;12.60;99.90;;;;;;5053331;28;19920;-72
2022/11/11 03:34:22;;;;;;;;;;;12.60;99.90;;;;;;5062648;28;19912;-71
2022/11/11 03:39:53;;;;;;;;;;;12.60;99.90;;;;;;5076006;28;20289;-72
2022/11/11 03:42:19;;;;;;;;;;;12.60;99.90;;;;;;5072983;28;19908;-71
2022/11/11 03:44:45;;;;;;;;;;;12.60;99.90;;;;;;5078186;28;19919;-71
2022/11/11 03:47:20;;;;;;;;;;;12.60;99.90;;;;;;5077792;28;20003;-71
2022/11/11 03:49:51;;;;;;;;;;;12.60;99.90;;;;;;5088331;28;20068;-71
2022/11/11 03:52:26;;;;;;;;;;;12.70;99.90;;;;;;5070053;28;19920;-71
2022/11/11 03:54:53;;;;;;;;;;;12.70;99.90;;;;;;5084807;28;19912;-71
2022/11/11 03:57:30;;;;;;;;;;;12.70;99.90;;;;;;5086574;28;20366;-71
2022/11/11 03:59:56;;;;;;;;;;;12.70;99.90;;;;;;5075945;28;20274;-71
2022/11/11 04:10:36;;;;;;;;;;;12.60;99.90;;;;;;5078013;28;19950;-72
2022/11/11 04:21:56;;;;;;;;;;;12.60;99.90;;;;;;5076181;28;19923;-71
2022/11/11 04:25:47;;;;;;;;;;;12.60;99.90;;;;;;5056419;28;20285;-72
2022/11/11 04:26:49;;;;;;;;;;;12.60;99.90;;;;;;5072798;28;19912;-71
2022/11/11 04:29:27;;;;;;;;;;;12.60;99.90;;;;;;5063763;28;19917;-71
2022/11/11 04:34:45;;;;;;;;;;;12.60;99.90;;;;;;5077682;28;19923;-71
2022/11/11 04:37:11;;;;;;;;;;;12.50;99.90;;;;;;5076632;28;20007;-72
2022/11/11 04:42:21;;;;;;;;;;;12.40;99.90;;;;;;5063568;28;20012;-71
2022/11/11 04:47:31;;;;;;;;;;;12.40;99.90;;;;;;5080827;28;19919;-71
2022/11/11 04:49:57;;;;;;;;;;;12.40;99.90;;;;;;5077104;28;19913;-71
2022/11/11 04:52:25;;;;;;;;;;;12.40;99.90;;;;;;5059998;28;19913;-72
2022/11/11 04:57:42;;;;;;;;;;;12.30;99.90;;;;;;5077348;28;19919;-72
2022/11/11 05:00:09;;;;;;;;;;;12.30;99.90;;;;;;5073742;28;19912;-72
2022/11/11 05:05:19;;;;;;;;;;;12.30;99.90;;;;;;5079041;28;19935;-74
2022/11/11 05:10:29;;;;;;;;;;;12.40;99.90;;;;;;5078111;28;19955;-72
2022/11/11 05:21:19;;;;;;;;;;;12.30;99.90;;;;;;5063615;28;20020;-72
2022/11/11 05:21:30;;;;;;;;;;;12.40;99.90;;;;;;5071093;28;19919;-71
2022/11/11 05:26:40;;;;;;;;;;;12.40;99.90;;;;;;5077521;28;19932;-72
2022/11/11 05:29:05;;;;;;;;;;;12.30;99.90;;;;;;5058163;28;19916;-71
2022/11/11 05:31:31;;;;;;;;;;;12.40;99.90;;;;;;5077841;28;19917;-71
2022/11/11 05:33:57;;;;;;;;;;;12.30;99.90;;;;;;5059921;28;20026;-71
2022/11/11 05:36:23;;;;;;;;;;;12.30;99.90;;;;;;5075176;28;20363;-71
2022/11/11 05:38:48;;;;;;;;;;;12.20;99.90;;;;;;5077329;28;19936;-71
2022/11/11 05:41:14;;;;;;;;;;;12.20;99.90;;;;;;5086550;28;19915;-71
2022/11/11 05:43:40;;;;;;;;;;;12.20;99.90;;;;;;5072398;28;19919;-71
2022/11/11 05:46:05;;;;;;;;;;;12.30;99.90;;;;;;5076247;28;19912;-71
2022/11/11 05:48:31;;;;;;;;;;;12.30;99.90;;;;;;5083492;28;19947;-72
2022/11/11 05:50:57;;;;;;;;;;;12.30;99.90;;;;;;5082017;28;19912;-71
2022/11/11 05:53:23;;;;;;;;;;;12.30;99.90;;;;;;5082022;28;20007;-71
2022/11/11 05:55:49;;;;;;;;;;;12.30;99.90;;;;;;5076955;28;19946;-71
2022/11/11 05:58:16;;;;;;;;;;;12.30;99.90;;;;;;5076897;28;19920;-71
2022/11/11 06:00:41;;;;;;;;;;;12.40;99.90;;;;;;5083703;28;19918;-71
2022/11/11 06:03:07;;;;;;;;;;;12.50;99.90;;;;;;5089735;28;19916;-71
2022/11/11 06:05:34;;;;;;;;;;;12.50;99.90;;;;;;5078235;28;19916;-71
2022/11/11 06:08:00;;;;;;;;;;;12.40;99.90;;;;;;5072764;28;19955;-71
2022/11/11 06:10:32;;;;;;;;;;;12.40;99.90;;;;;;5076769;28;19912;-72
2022/11/11 06:13:01;;;;;;;;;;;12.40;99.90;;;;;;5077635;28;19920;-71
2022/11/11 06:15:27;;;;;;;;;;;12.40;99.90;;;;;;5070363;28;19920;-71
2022/11/11 06:17:52;;;;;;;;;;;12.40;99.90;;;;;;5083050;28;19982;-71
2022/11/11 06:20:18;;;;;;;;;;;12.40;99.90;;;;;;5085874;28;19908;-71
2022/11/11 06:22:56;;;;;;;;;;;12.50;99.90;;;;;;5071171;28;20387;-71
2022/11/11 06:28:13;;;;;;;;;;;12.50;99.90;;;;;;5083010;28;19920;-70
2022/11/11 06:30:39;;;;;;;;;;;12.60;99.90;;;;;;5074679;28;19916;-71
2022/11/11 06:33:08;;;;;;;;;;;12.70;99.90;;;;;;5076151;28;19912;-71
2022/11/11 06:35:35;;;;;;;;;;;12.70;99.90;;;;;;5072252;28;19927;-71
2022/11/11 06:38:01;;;;;;;;;;;12.70;99.90;;;;;;5077988;28;20354;-71
2022/11/11 06:40:27;;;;;;;;;;;12.70;99.90;;;;;;5082525;28;19955;-71
2022/11/11 06:42:53;;;;;;;;;;;12.80;99.90;;;;;;5079344;28;19912;-72
2022/11/11 06:45:19;;;;;;;;;;;12.90;99.90;;;;;;5074582;28;19944;-72
2022/11/11 06:47:44;;;;;;;;;;;12.90;99.90;;;;;;5068394;28;20575;-71
2022/11/11 06:50:10;;;;;;;;;;;12.90;99.90;;;;;;5083762;28;20007;-71
2022/11/11 06:52:36;;;;;;;;;;;12.90;99.90;;;;;;5081286;28;19959;-71
2022/11/11 06:55:01;;;;;;;;;;;12.90;99.90;;;;;;5083419;28;19908;-72
2022/11/11 06:57:27;;;;;;;;;;;13.00;99.90;;;;;;5072434;28;19916;-71
2022/11/11 06:59:53;;;;;;;;;;;13.00;99.90;;;;;;5080796;28;19916;-71
2022/11/11 07:02:18;;;;;;;;;;;13.00;99.90;;;;;;5068056;28;19938;-71
2022/11/11 07:04:44;;;;;;;;;;;13.10;99.90;;;;;;5081904;28;20019;-71
2022/11/11 07:07:10;;;;;;;;;;;13.10;99.90;;;;;;5079353;28;20396;-71
2022/11/11 07:09:35;;;;;;;;;;;13.10;99.90;;;;;;5082936;28;19999;-72
2022/11/11 07:12:01;;;;;;;;;;;13.30;99.90;;;;;;5082834;28;19912;-71
2022/11/11 07:14:27;;;;;;;;;;;13.30;99.90;;;;;;5082375;28;19912;-71
2022/11/11 07:16:52;;;;;;;;;;;13.30;99.90;;;;;;5062292;28;19959;-71
2022/11/11 07:19:18;;;;;;;;;;;13.40;99.90;;;;;;5065328;28;19912;-72
2022/11/11 07:21:44;;;;;;;;;;;13.50;99.90;;;;;;5083768;28;19919;-71
2022/11/11 07:24:09;;;;;;;;;;;13.50;99.90;;;;;;5064139;28;19924;-71
2022/11/11 07:26:35;;;;;;;;;;;13.50;99.90;;;;;;5069495;28;20022;-71
2022/11/11 07:29:01;;;;;;;;;;;13.50;99.90;;;;;;5077210;28;19919;-71
2022/11/11 07:31:26;;;;;;;;;;;13.50;99.90;;;;;;5069328;28;19913;-71
2022/11/11 07:33:53;;;;;;;;;;;13.50;99.90;;;;;;5072574;28;19922;-71
2022/11/11 07:36:18;;;;;;;;;;;13.60;99.90;;;;;;5082105;28;19913;-71
2022/11/11 07:38:44;;;;;;;;;;;13.60;99.90;;;;;;5069663;28;20401;-71
2022/11/11 07:41:10;;;;;;;;;;;13.70;99.90;;;;;;5084952;28;19982;-71
2022/11/11 07:43:35;;;;;;;;;;;13.80;99.90;;;;;;5084995;28;19916;-71
2022/11/11 07:46:01;;;;;;;;;;;13.80;99.90;;;;;;5068802;28;19913;-71
2022/11/11 07:48:27;;;;;;;;;;;13.90;99.90;;;;;;5068062;28;19919;-71
2022/11/11 07:50:55;;;;;;;;;;;13.90;99.90;;;;;;5070138;28;19919;-71
2022/11/11 07:53:21;;;;;;;;;;;14.00;99.90;;;;;;5086257;28;19912;-73
2022/11/11 07:55:47;;;;;;;;;;;14.10;99.90;;;;;;5080648;28;20062;-71
2022/11/11 07:58:13;;;;;;;;;;;14.20;99.90;;;;;;5081860;28;19912;-70
2022/11/11 08:00:39;;;;;;;;;;;14.30;99.90;;;;;;5058149;28;19913;-70
2022/11/11 08:03:06;;;;;;;;;;;14.40;99.90;;;;;;5069041;28;19968;-71
2022/11/11 08:05:31;;;;;;;;;;;14.40;99.90;;;;;;5079425;28;19912;-71
2022/11/11 08:08:01;;;;;;;;;;;14.50;99.90;;;;;;5065645;28;19936;-71
2022/11/11 08:10:27;;;;;;;;;;;14.50;99.90;;;;;;5056661;28;19971;-71
2022/11/11 08:15:37;;;;;;;;;;;14.60;99.90;;;;;;5083587;28;19939;-72
2022/11/11 08:18:03;;;;;;;;;;;14.70;99.90;;;;;;5072520;28;19952;-71
2022/11/11 08:20:28;;;;;;;;;;;14.80;99.90;;;;;;5071816;28;19947;-71
2022/11/11 08:22:56;;;;;;;;;;;14.80;99.90;;;;;;5077221;28;19968;-73
2022/11/11 08:25:22;;;;;;;;;;;14.80;99.90;;;;;;5088182;28;20342;-72
2022/11/11 08:27:48;;;;;;;;;;;14.80;99.90;;;;;;5080354;28;19932;-71
2022/11/11 08:30:14;;;;;;;;;;;14.90;99.90;;;;;;5070242;28;20158;-72
2022/11/11 08:32:39;;;;;;;;;;;14.90;99.90;;;;;;5077722;28;20344;-72
2022/11/11 08:35:11;;;;;;;;;;;15.00;99.90;;;;;;5059195;28;19979;-71
2022/11/11 08:37:37;;;;;;;;;;;15.10;99.90;;;;;;5060831;28;19944;-71
2022/11/11 08:40:03;;;;;;;;;;;15.10;99.90;;;;;;5079838;28;19911;-71
2022/11/11 08:42:28;;;;;;;;;;;15.20;99.90;;;;;;5075728;28;19913;-72
2022/11/11 08:44:54;;;;;;;;;;;15.30;99.90;;;;;;5075956;28;20324;-72
2022/11/11 08:47:21;;;;;;;;;;;15.30;99.90;;;;;;5076222;28;19920;-72
2022/11/11 08:49:48;;;;;;;;;;;15.40;99.90;;;;;;5073733;28;19919;-73
2022/11/11 08:52:14;;;;;;;;;;;15.50;99.90;;;;;;5086680;28;19912;-72
2022/11/11 08:54:40;;;;;;;;;;;15.60;99.90;;;;;;5081333;28;20037;-72
2022/11/11 08:57:06;;;;;;;;;;;15.70;99.90;;;;;;5081198;28;20350;-72
2022/11/11 08:59:31;;;;;;;;;;;15.70;99.90;;;;;;5075948;28;20015;-72
2022/11/11 09:01:57;;;;;;;;;;;15.70;99.90;;;;;;5080167;28;19952;-72
2022/11/11 09:04:22;;;;;;;;;;;15.70;99.90;;;;;;5084787;28;20297;-72
2022/11/11 09:06:48;;;;;;;;;;;15.70;99.90;;;;;;5074190;28;19919;-72
2022/11/11 09:09:14;;;;;;;;;;;15.70;99.90;;;;;;5079522;28;19948;-72
2022/11/11 09:11:39;;;;;;;;;;;15.80;99.90;;;;;;5076482;28;19959;-72
2022/11/11 09:14:07;;;;;;;;;;;15.80;99.90;;;;;;5074025;28;20129;-72
2022/11/11 09:16:33;;;;;;;;;;;15.90;99.90;;;;;;5077484;28;20357;-72
2022/11/11 09:18:58;;;;;;;;;;;16.00;99.90;;;;;;5077766;28;19998;-72
2022/11/11 09:21:24;;;;;;;;;;;16.20;99.90;;;;;;5077982;28;19912;-73
2022/11/11 09:23:50;;;;;;;;;;;16.30;99.90;;;;;;5067191;28;20370;-72
2022/11/11 09:26:15;;;;;;;;;;;16.40;99.90;;;;;;5070753;28;19920;-72
2022/11/11 09:28:41;;;;;;;;;;;16.50;99.90;;;;;;5069215;28;19937;-72
2022/11/11 09:31:07;;;;;;;;;;;16.60;99.90;;;;;;5056976;28;19920;-72
2022/11/11 09:33:32;;;;;;;;;;;16.80;99.90;;;;;;5064639;28;20045;-72
2022/11/11 09:35:58;;;;;;;;;;;16.90;99.90;;;;;;5082620;28;19912;-72
2022/11/11 09:38:24;;;;;;;;;;;16.80;99.90;;;;;;5075578;28;19912;-72
2022/11/11 09:41:01;;;;;;;;;;;16.90;99.90;;;;;;5087913;28;20011;-72
2022/11/11 09:43:32;;;;;;;;;;;16.90;99.90;;;;;;5069609;28;19917;-71
2022/11/11 09:46:05;;;;;;;;;;;17.10;99.90;;;;;;5081000;28;19947;-73
2022/11/11 09:48:36;;;;;;;;;;;17.00;99.90;;;;;;5061197;28;20023;-68
2022/11/11 09:51:04;;;;;;;;;;;17.00;99.90;;;;;;5057607;28;19920;-69
2022/11/11 09:53:32;;;;;;;;;;;16.90;99.90;;;;;;5057632;28;19970;-69
2022/11/11 09:56:05;;;;;;;;;;;16.90;99.90;;;;;;5055280;28;19912;-70
2022/11/11 09:58:34;;;;;;;;;;;17.00;99.90;;;;;;5069148;28;19938;-69
2022/11/11 10:01:08;;;;;;;;;;;17.10;99.90;;;;;;5078166;28;19913;-70
2022/11/11 10:03:39;;;;;;;;;;;17.10;99.90;;;;;;5079306;28;20015;-69
2022/11/11 10:06:21;;;;;;;;;;;17.20;99.90;;;;;;5069677;28;20047;-69
2022/11/11 10:08:50;;;;;;;;;;;17.20;99.90;;;;;;5078601;28;19990;-69
2022/11/11 10:11:43;;;;;;;;;;;17.30;99.90;;;;;;5075214;28;20289;-69
2022/11/11 10:14:09;;;;;;;;;;;17.20;99.90;;;;;;5041101;28;20306;-69
2022/11/11 10:16:43;;;;;;;;;;;17.20;99.90;;;;;;5079342;28;19916;-69
2022/11/11 10:19:21;;;;;;;;;;;17.30;99.90;;;;;;5081752;28;19912;-70
2022/11/11 10:21:49;;;;;;;;;;;17.40;99.90;;;;;;5078139;28;19913;-70
2022/11/11 10:24:16;;;;;;;;;;;17.40;99.90;;;;;;5071511;28;19924;-70
2022/11/11 10:26:44;;;;;;;;;;;17.50;99.90;;;;;;5082637;28;19966;-70
2022/11/11 10:29:13;;;;;;;;;;;17.50;99.90;;;;;;5066875;28;20259;-70
2022/11/11 10:31:40;;;;;;;;;;;17.50;99.90;;;;;;5077342;28;20041;-70
2022/11/11 10:34:10;;;;;;;;;;;17.50;99.90;;;;;;5072166;28;19909;-70
2022/11/11 10:36:42;;;;;;;;;;;17.40;99.90;;;;;;5079323;28;19920;-70
2022/11/11 10:39:10;;;;;;;;;;;17.50;99.90;;;;;;5077084;28;20271;-70
2022/11/11 10:41:43;;;;;;;;;;;17.50;99.90;;;;;;5074063;28;19919;-70
2022/11/11 10:44:31;;;;;;;;;;;17.50;99.90;;;;;;5073957;28;19916;-71
2022/11/11 10:47:02;;;;;;;;;;;17.50;99.90;;;;;;5066990;28;19923;-72
2022/11/11 10:49:30;;;;;;;;;;;17.60;99.90;;;;;;5070093;28;19912;-71
2022/11/11 10:52:15;;;;;;;;;;;17.60;99.90;;;;;;5058205;28;20363;-71
2022/11/11 10:54:46;;;;;;;;;;;17.60;99.90;;;;;;5054672;28;20436;-71
2022/11/11 10:57:21;;;;;;;;;;;17.60;99.90;;;;;;5061715;28;19913;-71
2022/11/11 10:59:52;;;;;;;;;;;17.60;99.90;;;;;;5085163;28;19912;-71
2022/11/11 11:02:22;;;;;;;;;;;17.70;99.90;;;;;;5067553;28;20394;-73
2022/11/11 11:04:51;;;;;;;;;;;17.70;99.90;;;;;;5083403;28;20019;-71
2022/11/11 11:07:19;;;;;;;;;;;17.80;99.90;;;;;;5079251;28;20015;-71
2022/11/11 11:09:51;;;;;;;;;;;17.90;99.90;;;;;;5076363;28;20402;-71
2022/11/11 11:12:35;;;;;;;;;;;17.90;99.90;;;;;;5061665;28;19913;-71
2022/11/11 11:15:04;;;;;;;;;;;17.90;99.90;;;;;;5057998;28;19935;-73
2022/11/11 11:17:39;;;;;;;;;;;17.90;99.90;;;;;;5052587;28;20267;-71
2022/11/11 11:20:08;;;;;;;;;;;17.90;99.90;;;;;;5080855;28;19920;-71
2022/11/11 11:22:44;;;;;;;;;;;18.00;99.90;;;;;;5075808;28;19917;-71
2022/11/11 11:25:11;;;;;;;;;;;18.10;99.90;;;;;;5077102;28;20302;-71
2022/11/11 11:27:36;;;;;;;;;;;18.00;99.90;;;;;;5078633;28;19912;-71
2022/11/11 11:33:42;;;;;;;;;;;;;;;;;;;;;
2022/11/11 11:36:15;;;;;;;;;;;18.10;99.90;;;;;;5033183;28;20051;-71
2022/11/11 11:38:42;;;;;;;;;;;18.00;99.90;;;;;;5041841;28;19913;-70
2022/11/11 11:41:07;;;;;;;;;;;18.00;99.90;;;;;;5057872;28;19916;-70
2022/11/11 11:43:37;;;;;;;;;;;18.10;99.90;;;;;;5084138;28;19917;-71
2022/11/11 11:46:22;;;;;;;;;;;18.10;99.90;;;;;;5068551;28;19976;-71
2022/11/11 11:49:15;;;;;;;;;;;18.10;99.90;;;;;;5073990;28;19920;-71
2022/11/11 11:52:01;;;;;;;;;;;18.30;99.90;;;;;;5058514;28;19944;-70
2022/11/11 11:55:06;;;;;;;;;;;18.30;99.90;;;;;;5053658;28;19912;-71
2022/11/11 11:58:06;;;;;;;;;;;18.30;99.90;;;;;;5069896;28;19916;-71
2022/11/11 12:00:37;;;;;;;;;;;18.30;99.90;;;;;;5027437;28;19916;-70
2022/11/11 12:03:30;;;;;;;;;;;;;;;;;;;;;
2022/11/11 12:06:20;;;;;;;;;;;18.20;99.90;;;;;;5073366;28;20004;-72
2022/11/11 12:09:15;;;;;;;;;;;18.20;99.90;;;;;;5075533;28;19920;-72
2022/11/11 12:12:10;;;;;;;;;;;18.20;99.90;;;;;;5073836;28;20357;-72
2022/11/11 12:14:56;;;;;;;;;;;18.20;99.90;;;;;;5056224;28;20009;-72
2022/11/11 12:18:02;;;;;;;;;;;18.20;99.90;;;;;;5071457;28;19917;-72
2022/11/11 12:21:03;;;;;;;;;;;18.20;99.90;;;;;;5058349;28;20015;-73
2022/11/11 12:23:52;;;;;;;;;;;18.40;99.90;;;;;;5072491;28;20294;-72
2022/11/11 12:26:26;;;;;;;;;;;18.50;99.90;;;;;;5076422;28;19912;-72
2022/11/11 12:29:17;;;;;;;;;;;18.50;99.90;;;;;;5079965;28;19935;-72
2022/11/11 12:35:22;;;;;;;;;;;18.50;99.90;;;;;;4991231;28;19922;-72
2022/11/11 12:38:38;;;;;;;;;;;18.50;99.90;;;;;;5063032;28;19971;-71
2022/11/11 12:41:45;;;;;;;;;;;18.50;99.90;;;;;;5053738;28;19916;-72
2022/11/11 12:44:40;;;;;;;;;;;18.50;99.90;;;;;;5054912;28;19921;-72
2022/11/11 12:50:31;;;;;;;;;;;18.30;99.90;;;;;;4993629;28;19914;-72
2022/11/11 12:53:09;;;;;;;;;;;18.20;99.90;;;;;;5040048;28;19921;-72
2022/11/11 12:55:53;;;;;;;;;;;18.30;99.90;;;;;;5074774;28;19920;-72
2022/11/11 12:58:28;;;;;;;;;;;18.20;99.90;;;;;;5057160;28;19912;-72
2022/11/11 13:01:09;;;;;;;;;;;18.20;99.90;;;;;;5073599;28;19912;-72
2022/11/11 13:03:47;;;;;;;;;;;18.20;99.90;;;;;;5075484;28;19939;-72
2022/11/11 13:06:13;;;;;;;;;;;18.20;99.90;;;;;;5072400;28;20290;-72
2022/11/11 13:08:52;;;;;;;;;;;18.20;99.90;;;;;;5071933;28;20441;-72
2022/11/11 13:11:24;;;;;;;;;;;18.20;99.90;;;;;;5073167;28;19913;-72
2022/11/11 13:13:49;;;;;;;;;;;18.10;99.90;;;;;;5074118;28;19982;-72
2022/11/11 13:16:18;;;;;;;;;;;18.10;99.90;;;;;;5075197;28;20374;-72
2022/11/11 13:18:48;;;;;;;;;;;18.20;99.90;;;;;;5059733;28;19991;-72
2022/11/11 13:21:17;;;;;;;;;;;18.10;99.90;;;;;;5074688;28;19912;-73
2022/11/11 13:23:43;;;;;;;;;;;18.10;99.90;;;;;;5073693;28;19917;-73
2022/11/11 13:26:32;;;;;;;;;;;18.10;99.90;;;;;;5076570;28;20432;-72
2022/11/11 13:29:16;;;;;;;;;;;18.00;99.90;;;;;;5043185;28;19913;-72
2022/11/11 13:31:43;;;;;;;;;;;17.90;99.90;;;;;;5075170;28;19960;-72
2022/11/11 13:34:10;;;;;;;;;;;17.90;99.90;;;;;;5076838;28;20401;-72
2022/11/11 13:36:51;;;;;;;;;;;17.90;99.90;;;;;;5075216;28;20576;-72
2022/11/11 13:39:37;;;;;;;;;;;17.90;99.90;;;;;;5074845;28;19920;-72
2022/11/11 13:42:04;;;;;;;;;;;17.80;99.90;;;;;;5071714;28;19917;-72
2022/11/11 13:44:35;;;;;;;;;;;17.80;99.90;;;;;;5059628;28;19916;-72
2022/11/11 13:47:03;;;;;;;;;;;17.80;99.90;;;;;;5058075;28;19963;-72
2022/11/11 13:49:37;;;;;;;;;;;17.70;99.90;;;;;;5073942;28;20044;-72
2022/11/11 13:52:04;;;;;;;;;;;17.80;99.90;;;;;;5076938;28;20414;-72
2022/11/11 13:54:34;;;;;;;;;;;17.70;99.90;;;;;;5075066;28;19928;-72
2022/11/11 13:57:05;;;;;;;;;;;17.70;99.90;;;;;;5055795;28;19920;-72
2022/11/11 13:59:37;;;;;;;;;;;17.70;99.90;;;;;;5073816;28;20007;-72
2022/11/11 14:02:25;;;;;;;;;;;17.70;99.90;;;;;;5089582;28;19912;-72
2022/11/11 14:05:14;;;;;;;;;;;17.70;99.90;;;;;;5082655;28;20015;-72
2022/11/11 14:07:42;;;;;;;;;;;17.70;99.90;;;;;;5066795;28;19982;-72
2022/11/11 14:10:28;;;;;;;;;;;17.70;99.90;;;;;;5053499;28;19991;-72
2022/11/11 14:12:54;;;;;;;;;;;17.60;99.90;;;;;;5064280;28;20329;-72
2022/11/11 14:15:40;;;;;;;;;;;17.50;99.90;;;;;;5069216;28;19913;-72
2022/11/11 14:18:15;;;;;;;;;;;17.60;99.90;;;;;;5054216;28;19934;-72
2022/11/11 14:20:41;;;;;;;;;;;17.50;99.90;;;;;;5048639;28;19975;-72
2022/11/11 14:23:22;;;;;;;;;;;17.50;99.90;;;;;;5070363;28;19912;-73
2022/11/11 14:25:49;;;;;;;;;;;17.40;99.90;;;;;;5073020;28;19913;-73
2022/11/11 14:28:32;;;;;;;;;;;17.40;99.90;;;;;;5068055;28;19979;-73
2022/11/11 14:31:14;;;;;;;;;;;17.40;99.90;;;;;;5055379;28;19917;-72
2022/11/11 14:33:43;;;;;;;;;;;17.40;99.90;;;;;;5060110;28;20354;-72
2022/11/11 14:36:28;;;;;;;;;;;17.30;99.90;;;;;;5077526;28;19960;-73
2022/11/11 14:38:54;;;;;;;;;;;17.30;99.90;;;;;;5069214;28;19917;-72
2022/11/11 14:41:38;;;;;;;;;;;17.20;99.90;;;;;;5071224;28;20006;-72
2022/11/11 14:44:27;;;;;;;;;;;17.20;99.90;;;;;;5073327;28;19920;-72
2022/11/11 14:47:17;;;;;;;;;;;17.10;99.90;;;;;;5066065;28;19917;-72
2022/11/11 14:49:44;;;;;;;;;;;17.10;99.90;;;;;;5071874;28;19919;-72
2022/11/11 14:52:28;;;;;;;;;;;17.20;99.90;;;;;;5048260;28;19920;-72
2022/11/11 14:55:00;;;;;;;;;;;17.10;99.90;;;;;;5067812;28;19913;-73
2022/11/11 14:57:32;;;;;;;;;;;17.10;99.90;;;;;;5070124;28;19913;-73
2022/11/11 14:59:58;;;;;;;;;;;17.00;99.90;;;;;;5060361;28;19960;-74
2022/11/11 15:02:26;;;;;;;;;;;17.00;99.90;;;;;;5060751;28;19912;-73
2022/11/11 15:04:52;;;;;;;;;;;16.90;99.90;;;;;;5072565;28;19912;-73
2022/11/11 15:07:23;;;;;;;;;;;16.90;99.90;;;;;;5074185;28;20374;-72
2022/11/11 15:09:58;;;;;;;;;;;16.90;99.90;;;;;;5072414;28;19908;-74
2022/11/11 15:12:36;;;;;;;;;;;16.70;99.90;;;;;;5071761;28;19923;-74
2022/11/11 15:15:23;;;;;;;;;;;16.70;99.90;;;;;;5064943;28;19917;-74
2022/11/11 15:17:55;;;;;;;;;;;16.60;99.90;;;;;;5071657;28;19935;-73
2022/11/11 15:20:24;;;;;;;;;;;16.60;99.90;;;;;;5070721;28;19916;-74
2022/11/11 15:22:56;;;;;;;;;;;16.60;99.90;;;;;;5065184;28;19912;-73
2022/11/11 15:25:25;;;;;;;;;;;16.50;99.90;;;;;;5084839;28;19958;-73
2022/11/11 15:27:51;;;;;;;;;;;16.40;99.90;;;;;;5073015;28;19967;-73
2022/11/11 15:30:20;;;;;;;;;;;16.30;99.90;;;;;;5073695;28;20374;-74
2022/11/11 15:32:48;;;;;;;;;;;16.30;99.90;;;;;;5087034;28;20302;-73
2022/11/11 15:38:40;;;;;;;;;;;16.20;99.90;;;;;;4988839;28;19961;-73
2022/11/11 15:44:55;;;;;;;;;;;;;;;;;;;;;
2022/11/11 15:54:10;;;;;;;;;;;;;;;;;;;;;
2022/11/11 16:09:49;;;;;;;;;;;15.50;99.90;;;;;;4781951;29;19918;-73
2022/11/11 16:16:12;;;;;;;;;;;15.40;99.90;;;;;;4786493;30;20002;-73
2022/11/11 16:21:34;;;;;;;;;;;15.30;99.90;;;;;;4842333;29;20357;-73
2022/11/11 16:24:01;;;;;;;;;;;15.20;99.90;;;;;;4899259;29;19919;-73
2022/11/11 16:26:27;;;;;;;;;;;15.10;99.90;;;;;;4933183;28;19913;-73
2022/11/11 16:28:56;;;;;;;;;;;15.00;99.90;;;;;;5088208;28;19919;-73
2022/11/11 16:44:54;;;;;;;;;;;14.90;99.90;;;;;;5009785;28;19919;-72
2022/11/11 16:47:27;;;;;;;;;;;14.80;99.90;;;;;;5071610;28;19912;-71
2022/11/11 16:50:04;;;;;;;;;;;14.90;99.90;;;;;;5062256;28;20023;-72
2022/11/11 16:52:38;;;;;;;;;;;15.00;99.90;;;;;;5072862;28;19912;-72
2022/11/11 16:55:04;;;;;;;;;;;15.00;99.90;;;;;;5043447;28;19913;-71
2022/11/11 16:57:31;;;;;;;;;;;15.10;99.90;;;;;;5074837;28;19999;-72
2022/11/11 16:59:59;;;;;;;;;;;15.20;99.90;;;;;;5054403;28;19920;-72
2022/11/11 17:02:25;;;;;;;;;;;15.20;99.90;;;;;;5074892;28;19912;-72